sensor_id;sensor_type;location;lat;lon;timestamp;pressure;altitude;pressure_sealevel;temperature;humidity
829;BME280;396;52.558;13.188;2023-05-09T00:02:19;101879.75;;;11.99;58.28
829;BME280;396;52.558;13.188;2023-05-09T00:04:46;101876.50;;;11.97;59.16
829;BME280;396;52.558;13.188;2023-05-09T00:07:13;101880.56;;;11.95;59.78
829;BME280;396;52.558;13.188;2023-05-09T00:09:39;101874.63;;;11.93;59.14
829;BME280;396;52.558;13.188;2023-05-09T00:12:06;101884.97;;;11.85;59.36
829;BME280;396;52.558;13.188;2023-05-09T00:14:33;101889.59;;;11.85;59.69
829;BME280;396;52.558;13.188;2023-05-09T00:17:01;101888.78;;;11.84;59.76
829;BME280;396;52.558;13.188;2023-05-09T00:19:28;101888.25;;;11.82;59.47
829;BME280;396;52.558;13.188;2023-05-09T00:21:55;101892.03;;;11.86;59.63
829;BME280;396;52.558;13.188;2023-05-09T00:24:21;101885.78;;;11.86;59.65
829;BME280;396;52.558;13.188;2023-05-09T00:26:48;101882.53;;;11.84;60.18
829;BME280;396;52.558;13.188;2023-05-09T00:29:14;101884.44;;;11.78;60.84
829;BME280;396;52.558;13.188;2023-05-09T00:31:41;101892.06;;;11.66;59.80
829;BME280;396;52.558;13.188;2023-05-09T00:34:09;101895.03;;;11.70;59.27
829;BME280;396;52.558;13.188;2023-05-09T00:36:36;101892.34;;;11.59;59.84
829;BME280;396;52.558;13.188;2023-05-09T00:39:02;101898.06;;;11.53;60.79
829;BME280;396;52.558;13.188;2023-05-09T00:41:29;101888.03;;;11.53;59.78
829;BME280;396;52.558;13.188;2023-05-09T00:43:56;101894.25;;;11.59;59.05
829;BME280;396;52.558;13.188;2023-05-09T00:46:22;101885.84;;;11.50;60.08
829;BME280;396;52.558;13.188;2023-05-09T00:48:49;101888.81;;;11.59;59.40
829;BME280;396;52.558;13.188;2023-05-09T00:51:18;101876.88;;;11.55;60.42
829;BME280;396;52.558;13.188;2023-05-09T00:53:45;101880.16;;;11.52;60.39
829;BME280;396;52.558;13.188;2023-05-09T00:56:11;101872.03;;;11.47;60.09
829;BME280;396;52.558;13.188;2023-05-09T00:58:38;101875.00;;;11.50;60.12
829;BME280;396;52.558;13.188;2023-05-09T01:01:05;101872.03;;;11.47;59.93
829;BME280;396;52.558;13.188;2023-05-09T01:03:32;101854.69;;;11.43;59.71
829;BME280;396;52.558;13.188;2023-05-09T01:06:04;101861.44;;;11.45;59.54
829;BME280;396;52.558;13.188;2023-05-09T01:08:51;101856.31;;;11.39;59.42
829;BME280;396;52.558;13.188;2023-05-09T01:11:28;101861.19;;;11.42;59.82
829;BME280;396;52.558;13.188;2023-05-09T01:14:04;101860.66;;;11.34;60.00
829;BME280;396;52.558;13.188;2023-05-09T01:16:37;101862.28;;;11.35;58.68
829;BME280;396;52.558;13.188;2023-05-09T01:19:21;101868.00;;;11.34;60.14
829;BME280;396;52.558;13.188;2023-05-09T01:21:54;101866.34;;;11.33;59.68
829;BME280;396;52.558;13.188;2023-05-09T01:24:38;101862.03;;;11.32;59.44
829;BME280;396;52.558;13.188;2023-05-09T01:27:21;101852.53;;;11.24;60.51
829;BME280;396;52.558;13.188;2023-05-09T01:29:56;101855.53;;;11.23;59.17
829;BME280;396;52.558;13.188;2023-05-09T01:32:24;101843.88;;;11.17;60.25
829;BME280;396;52.558;13.188;2023-05-09T01:34:54;101842.81;;;11.03;60.38
829;BME280;396;52.558;13.188;2023-05-09T01:37:27;101845.25;;;10.99;59.48
829;BME280;396;52.558;13.188;2023-05-09T01:39:57;101842.28;;;11.01;60.07
829;BME280;396;52.558;13.188;2023-05-09T01:42:27;101838.47;;;10.97;60.11
829;BME280;396;52.558;13.188;2023-05-09T01:44:57;101845.53;;;10.93;59.82
829;BME280;396;52.558;13.188;2023-05-09T01:47:25;101845.00;;;10.91;60.19
829;BME280;396;52.558;13.188;2023-05-09T01:49:54;101850.41;;;10.91;59.41
829;BME280;396;52.558;13.188;2023-05-09T01:52:22;101847.97;;;10.94;59.81
829;BME280;396;52.558;13.188;2023-05-09T01:54:50;101841.19;;;10.97;59.33
829;BME280;396;52.558;13.188;2023-05-09T01:57:17;101850.41;;;10.96;58.60
829;BME280;396;52.558;13.188;2023-05-09T01:59:45;101844.47;;;10.94;59.46
829;BME280;396;52.558;13.188;2023-05-09T02:02:14;101850.94;;;10.98;59.07
829;BME280;396;52.558;13.188;2023-05-09T02:04:42;101837.94;;;10.95;58.88
829;BME280;396;52.558;13.188;2023-05-09T02:07:09;101846.34;;;10.93;59.27
829;BME280;396;52.558;13.188;2023-05-09T02:09:36;101842.28;;;10.91;59.42
829;BME280;396;52.558;13.188;2023-05-09T02:12:03;101846.09;;;10.90;58.70
829;BME280;396;52.558;13.188;2023-05-09T02:14:30;101833.63;;;10.94;58.59
829;BME280;396;52.558;13.188;2023-05-09T02:16:58;101843.38;;;10.95;57.81
829;BME280;396;52.558;13.188;2023-05-09T02:19:32;101830.34;;;10.86;58.63
829;BME280;396;52.558;13.188;2023-05-09T02:21:58;101833.59;;;10.83;58.75
829;BME280;396;52.558;13.188;2023-05-09T02:24:25;101830.09;;;10.83;58.09
829;BME280;396;52.558;13.188;2023-05-09T02:26:52;101839.59;;;10.85;58.11
829;BME280;396;52.558;13.188;2023-05-09T02:29:20;101839.59;;;10.85;57.57
829;BME280;396;52.558;13.188;2023-05-09T02:31:51;101843.63;;;10.83;57.26
829;BME280;396;52.558;13.188;2023-05-09T02:34:18;101842.31;;;10.80;56.99
829;BME280;396;52.558;13.188;2023-05-09T02:36:47;101839.31;;;10.77;57.20
829;BME280;396;52.558;13.188;2023-05-09T02:39:14;101844.44;;;10.78;57.52
829;BME280;396;52.558;13.188;2023-05-09T02:41:47;101839.56;;;10.75;58.16
829;BME280;396;52.558;13.188;2023-05-09T02:44:13;101842.03;;;10.72;57.62
829;BME280;396;52.558;13.188;2023-05-09T02:46:40;101847.69;;;10.65;57.82
829;BME280;396;52.558;13.188;2023-05-09T02:49:06;101840.94;;;10.63;57.76
829;BME280;396;52.558;13.188;2023-05-09T02:51:33;101845.53;;;10.62;57.77
829;BME280;396;52.558;13.188;2023-05-09T02:54:02;101842.81;;;10.62;57.47
829;BME280;396;52.558;13.188;2023-05-09T02:56:28;101845.28;;;10.58;57.39
829;BME280;396;52.558;13.188;2023-05-09T02:58:55;101846.59;;;10.56;57.55
829;BME280;396;52.558;13.188;2023-05-09T03:01:21;101835.78;;;10.46;57.59
829;BME280;396;52.558;13.188;2023-05-09T03:03:48;101842.53;;;10.43;57.89
829;BME280;396;52.558;13.188;2023-05-09T03:06:14;101835.50;;;10.37;58.69
829;BME280;396;52.558;13.188;2023-05-09T03:08:41;101838.72;;;10.39;58.32
829;BME280;396;52.558;13.188;2023-05-09T03:11:09;101836.31;;;10.43;58.73
829;BME280;396;52.558;13.188;2023-05-09T03:13:36;101836.06;;;10.49;58.40
829;BME280;396;52.558;13.188;2023-05-09T03:16:02;101828.97;;;10.48;58.60
829;BME280;396;52.558;13.188;2023-05-09T03:18:29;101827.38;;;10.47;57.75
829;BME280;396;52.558;13.188;2023-05-09T03:20:56;101824.38;;;10.44;58.25
829;BME280;396;52.558;13.188;2023-05-09T03:23:22;101825.19;;;10.39;59.13
829;BME280;396;52.558;13.188;2023-05-09T03:25:49;101830.31;;;10.35;59.54
829;BME280;396;52.558;13.188;2023-05-09T03:28:17;101817.06;;;10.34;58.64
829;BME280;396;52.558;13.188;2023-05-09T03:30:43;101819.50;;;10.35;58.80
829;BME280;396;52.558;13.188;2023-05-09T03:33:10;101811.63;;;10.34;58.85
829;BME280;396;52.558;13.188;2023-05-09T03:35:36;101816.81;;;10.41;58.93
829;BME280;396;52.558;13.188;2023-05-09T03:38:03;101816.78;;;10.35;59.85
829;BME280;396;52.558;13.188;2023-05-09T03:40:30;101814.63;;;10.32;59.19
829;BME280;396;52.558;13.188;2023-05-09T03:42:56;101819.47;;;10.30;59.27
829;BME280;396;52.558;13.188;2023-05-09T03:45:24;101815.16;;;10.34;59.68
829;BME280;396;52.558;13.188;2023-05-09T03:47:51;101813.25;;;10.30;59.47
829;BME280;396;52.558;13.188;2023-05-09T03:50:17;101809.75;;;10.34;59.04
829;BME280;396;52.558;13.188;2023-05-09T03:52:44;101812.44;;;10.34;58.75
829;BME280;396;52.558;13.188;2023-05-09T03:55:11;101807.31;;;10.38;58.77
829;BME280;396;52.558;13.188;2023-05-09T03:57:38;101811.91;;;10.38;59.38
829;BME280;396;52.558;13.188;2023-05-09T04:00:06;101810.56;;;10.40;58.99
829;BME280;396;52.558;13.188;2023-05-09T04:02:35;101809.22;;;10.43;59.68
829;BME280;396;52.558;13.188;2023-05-09T04:05:02;101814.34;;;10.44;59.26
829;BME280;396;52.558;13.188;2023-05-09T04:07:29;101803.53;;;10.39;59.82
829;BME280;396;52.558;13.188;2023-05-09T04:09:56;101795.38;;;10.44;59.46
829;BME280;396;52.558;13.188;2023-05-09T04:12:22;101811.63;;;10.44;59.74
829;BME280;396;52.558;13.188;2023-05-09T04:14:49;101804.31;;;10.40;59.36
829;BME280;396;52.558;13.188;2023-05-09T04:17:16;101806.22;;;10.39;58.83
829;BME280;396;52.558;13.188;2023-05-09T04:19:44;101801.63;;;10.40;58.48
829;BME280;396;52.558;13.188;2023-05-09T04:22:10;101805.97;;;10.41;58.76
829;BME280;396;52.558;13.188;2023-05-09T04:24:37;101815.72;;;10.42;58.88
829;BME280;396;52.558;13.188;2023-05-09T04:27:04;101810.31;;;10.37;59.01
829;BME280;396;52.558;13.188;2023-05-09T04:29:31;101804.88;;;10.37;59.52
829;BME280;396;52.558;13.188;2023-05-09T04:31:58;101810.31;;;10.37;59.44
829;BME280;396;52.558;13.188;2023-05-09T04:34:24;101810.31;;;10.42;59.08
829;BME280;396;52.558;13.188;2023-05-09T04:36:53;101805.41;;;10.44;59.63
829;BME280;396;52.558;13.188;2023-05-09T04:39:20;101806.50;;;10.53;59.53
829;BME280;396;52.558;13.188;2023-05-09T04:41:46;101812.75;;;10.58;59.58
829;BME280;396;52.558;13.188;2023-05-09T04:44:14;101809.75;;;10.65;57.72
829;BME280;396;52.558;13.188;2023-05-09T04:46:40;101807.63;;;10.67;58.58
829;BME280;396;52.558;13.188;2023-05-09T04:49:07;101808.66;;;10.71;58.77
829;BME280;396;52.558;13.188;2023-05-09T04:51:34;101805.97;;;10.71;58.76
829;BME280;396;52.558;13.188;2023-05-09T04:54:02;101804.34;;;10.70;59.15
829;BME280;396;52.558;13.188;2023-05-09T04:56:29;101802.19;;;10.72;58.39
829;BME280;396;52.558;13.188;2023-05-09T04:58:55;101803.81;;;10.73;58.59
829;BME280;396;52.558;13.188;2023-05-09T05:01:22;101802.72;;;10.74;58.14
829;BME280;396;52.558;13.188;2023-05-09T05:03:48;101803.28;;;10.76;59.60
829;BME280;396;52.558;13.188;2023-05-09T05:06:15;101803.50;;;10.80;59.98
829;BME280;396;52.558;13.188;2023-05-09T05:08:41;101802.44;;;10.81;59.34
829;BME280;396;52.558;13.188;2023-05-09T05:11:10;101800.25;;;10.88;60.45
829;BME280;396;52.558;13.188;2023-05-09T05:13:37;101794.00;;;10.98;60.35
829;BME280;396;52.558;13.188;2023-05-09T05:16:04;101801.88;;;11.04;60.81
829;BME280;396;52.558;13.188;2023-05-09T05:18:31;101794.84;;;11.03;60.77
829;BME280;396;52.558;13.188;2023-05-09T05:20:57;101796.97;;;11.06;59.44
829;BME280;396;52.558;13.188;2023-05-09T05:23:24;101791.81;;;11.10;59.70
829;BME280;396;52.558;13.188;2023-05-09T05:25:51;101793.44;;;11.16;59.73
829;BME280;396;52.558;13.188;2023-05-09T05:28:19;101780.13;;;11.25;59.95
829;BME280;396;52.558;13.188;2023-05-09T05:30:46;101783.66;;;11.30;57.60
829;BME280;396;52.558;13.188;2023-05-09T05:33:12;101782.00;;;11.34;58.12
829;BME280;396;52.558;13.188;2023-05-09T05:35:39;101775.47;;;11.35;58.93
829;BME280;396;52.558;13.188;2023-05-09T05:38:05;101767.59;;;11.39;57.68
829;BME280;396;52.558;13.188;2023-05-09T05:40:32;101769.50;;;11.39;58.42
829;BME280;396;52.558;13.188;2023-05-09T05:42:58;101771.13;;;11.40;58.42
829;BME280;396;52.558;13.188;2023-05-09T05:45:27;101767.28;;;11.46;58.21
829;BME280;396;52.558;13.188;2023-05-09T05:47:55;101762.41;;;11.53;57.92
829;BME280;396;52.558;13.188;2023-05-09T05:50:22;101759.13;;;11.56;58.29
829;BME280;396;52.558;13.188;2023-05-09T05:52:48;101761.25;;;11.64;56.97
829;BME280;396;52.558;13.188;2023-05-09T05:55:15;101753.66;;;11.66;56.83
829;BME280;396;52.558;13.188;2023-05-09T05:57:42;101748.97;;;11.77;56.96
829;BME280;396;52.558;13.188;2023-05-09T06:00:09;101754.34;;;11.92;56.07
829;BME280;396;52.558;13.188;2023-05-09T06:02:37;101750.25;;;11.95;55.64
829;BME280;396;52.558;13.188;2023-05-09T06:05:05;101743.16;;;11.99;55.29
829;BME280;396;52.558;13.188;2023-05-09T06:07:32;101743.34;;;12.12;55.89
829;BME280;396;52.558;13.188;2023-05-09T06:09:59;101750.03;;;12.25;55.07
829;BME280;396;52.558;13.188;2023-05-09T06:12:25;101732.66;;;12.26;54.93
829;BME280;396;52.558;13.188;2023-05-09T06:14:52;101740.22;;;12.29;53.56
829;BME280;396;52.558;13.188;2023-05-09T06:17:19;101730.94;;;12.35;53.18
829;BME280;396;52.558;13.188;2023-05-09T06:19:47;101728.44;;;12.44;53.82
829;BME280;396;52.558;13.188;2023-05-09T06:22:13;101728.63;;;12.53;53.43
829;BME280;396;52.558;13.188;2023-05-09T06:24:40;101733.41;;;12.61;53.05
829;BME280;396;52.558;13.188;2023-05-09T06:27:06;101711.34;;;12.68;53.34
829;BME280;396;52.558;13.188;2023-05-09T06:29:33;101720.50;;;12.77;53.61
829;BME280;396;52.558;13.188;2023-05-09T06:32:00;101719.13;;;12.79;52.86
829;BME280;396;52.558;13.188;2023-05-09T06:34:27;101720.97;;;12.84;53.37
829;BME280;396;52.558;13.188;2023-05-09T06:36:55;101710.63;;;12.86;52.42
829;BME280;396;52.558;13.188;2023-05-09T06:39:21;101710.00;;;12.94;52.59
829;BME280;396;52.558;13.188;2023-05-09T06:41:48;101707.50;;;12.98;51.76
829;BME280;396;52.558;13.188;2023-05-09T06:44:14;101707.63;;;13.11;51.43
829;BME280;396;52.558;13.188;2023-05-09T06:46:41;101703.41;;;13.19;51.27
829;BME280;396;52.558;13.188;2023-05-09T06:49:07;101698.25;;;13.23;51.80
829;BME280;396;52.558;13.188;2023-05-09T06:51:35;101693.03;;;13.26;52.57
829;BME280;396;52.558;13.188;2023-05-09T06:54:03;101691.41;;;13.25;51.57
829;BME280;396;52.558;13.188;2023-05-09T06:56:30;101687.59;;;13.26;51.33
829;BME280;396;52.558;13.188;2023-05-09T06:58:56;101678.78;;;13.34;52.15
829;BME280;396;52.558;13.188;2023-05-09T07:01:23;101679.75;;;13.44;51.38
829;BME280;396;52.558;13.188;2023-05-09T07:03:49;101667.75;;;13.45;50.85
829;BME280;396;52.558;13.188;2023-05-09T07:06:16;101671.72;;;13.52;51.07
829;BME280;396;52.558;13.188;2023-05-09T07:08:43;101667.47;;;13.65;50.57
829;BME280;396;52.558;13.188;2023-05-09T07:11:11;101658.72;;;13.68;51.88
829;BME280;396;52.558;13.188;2023-05-09T07:13:38;101666.72;;;13.78;51.75
829;BME280;396;52.558;13.188;2023-05-09T07:16:05;101659.38;;;13.79;50.70
829;BME280;396;52.558;13.188;2023-05-09T07:18:31;101664.59;;;13.75;50.32
829;BME280;396;52.558;13.188;2023-05-09T07:20:58;101662.09;;;13.79;50.23
829;BME280;396;52.558;13.188;2023-05-09T07:23:24;101678.34;;;13.84;49.80
829;BME280;396;52.558;13.188;2023-05-09T07:25:55;101661.63;;;13.91;49.62
829;BME280;396;52.558;13.188;2023-05-09T07:28:24;101665.75;;;13.88;49.15
829;BME280;396;52.558;13.188;2023-05-09T07:30:51;101660.09;;;13.84;49.73
829;BME280;396;52.558;13.188;2023-05-09T07:33:17;101659.84;;;13.81;50.00
829;BME280;396;52.558;13.188;2023-05-09T07:35:44;101651.25;;;13.93;51.15
829;BME280;396;52.558;13.188;2023-05-09T07:38:11;101653.59;;;13.99;50.04
829;BME280;396;52.558;13.188;2023-05-09T07:40:38;101656.88;;;14.15;50.22
829;BME280;396;52.558;13.188;2023-05-09T07:43:05;101650.16;;;14.26;51.02
829;BME280;396;52.558;13.188;2023-05-09T07:45:33;101654.81;;;14.39;49.63
829;BME280;396;52.558;13.188;2023-05-09T07:48:00;101645.34;;;14.51;49.07
829;BME280;396;52.558;13.188;2023-05-09T07:50:27;101649.31;;;14.58;48.50
829;BME280;396;52.558;13.188;2023-05-09T07:52:53;101643.84;;;14.58;47.41
829;BME280;396;52.558;13.188;2023-05-09T07:55:20;101641.63;;;14.60;47.79
829;BME280;396;52.558;13.188;2023-05-09T07:57:46;101636.59;;;14.68;48.24
829;BME280;396;52.558;13.188;2023-05-09T08:00:14;101629.09;;;14.73;48.86
829;BME280;396;52.558;13.188;2023-05-09T08:02:42;101634.75;;;14.77;47.87
829;BME280;396;52.558;13.188;2023-05-09T08:05:08;101628.28;;;14.86;47.39
829;BME280;396;52.558;13.188;2023-05-09T08:07:37;101637.38;;;14.96;48.67
829;BME280;396;52.558;13.188;2023-05-09T08:10:05;101621.28;;;15.08;46.78
829;BME280;396;52.558;13.188;2023-05-09T08:12:32;101626.72;;;15.22;45.51
829;BME280;396;52.558;13.188;2023-05-09T08:14:58;101623.41;;;15.25;46.02
829;BME280;396;52.558;13.188;2023-05-09T08:17:25;101607.94;;;15.20;46.77
829;BME280;396;52.558;13.188;2023-05-09T08:19:53;101623.41;;;15.25;46.20
829;BME280;396;52.558;13.188;2023-05-09T08:22:19;101613.56;;;15.37;45.56
829;BME280;396;52.558;13.188;2023-05-09T08:24:46;101615.47;;;15.37;46.01
829;BME280;396;52.558;13.188;2023-05-09T08:27:13;101613.84;;;15.36;46.26
829;BME280;396;52.558;13.188;2023-05-09T08:29:40;101615.03;;;15.44;46.15
829;BME280;396;52.558;13.188;2023-05-09T08:32:07;101616.91;;;15.57;44.55
829;BME280;396;52.558;13.188;2023-05-09T08:34:34;101610.16;;;15.68;44.94
829;BME280;396;52.558;13.188;2023-05-09T08:37:03;101605.69;;;15.72;44.19
829;BME280;396;52.558;13.188;2023-05-09T08:39:29;101613.75;;;15.77;44.87
829;BME280;396;52.558;13.188;2023-05-09T08:41:59;101615.03;;;15.80;44.20
829;BME280;396;52.558;13.188;2023-05-09T08:44:28;101597.22;;;15.82;42.76
829;BME280;396;52.558;13.188;2023-05-09T08:46:57;101601.44;;;15.88;42.22
829;BME280;396;52.558;13.188;2023-05-09T08:49:25;101606.22;;;15.83;42.62
829;BME280;396;52.558;13.188;2023-05-09T08:51:52;101594.97;;;15.84;41.05
829;BME280;396;52.558;13.188;2023-05-09T08:54:21;101593.16;;;15.80;42.17
829;BME280;396;52.558;13.188;2023-05-09T08:56:47;101592.50;;;15.74;42.25
829;BME280;396;52.558;13.188;2023-05-09T08:59:15;101585.78;;;15.80;42.48
829;BME280;396;52.558;13.188;2023-05-09T09:01:42;101590.81;;;15.87;42.55
829;BME280;396;52.558;13.188;2023-05-09T09:04:09;101573.00;;;15.89;41.87
829;BME280;396;52.558;13.188;2023-05-09T09:06:38;101569.88;;;16.05;42.68
829;BME280;396;52.558;13.188;2023-05-09T09:09:06;101573.81;;;16.21;42.09
829;BME280;396;52.558;13.188;2023-05-09T09:11:36;101580.59;;;16.32;40.42
829;BME280;396;52.558;13.188;2023-05-09T09:14:06;101572.25;;;16.37;41.57
829;BME280;396;52.558;13.188;2023-05-09T09:16:36;101575.34;;;16.45;40.79
829;BME280;396;52.558;13.188;2023-05-09T09:19:04;101570.69;;;16.45;41.65
829;BME280;396;52.558;13.188;2023-05-09T09:21:35;101577.63;;;16.51;41.30
829;BME280;396;52.558;13.188;2023-05-09T09:24:04;101569.56;;;16.55;41.13
829;BME280;396;52.558;13.188;2023-05-09T09:26:33;101576.34;;;16.57;40.80
829;BME280;396;52.558;13.188;2023-05-09T09:29:01;101570.41;;;16.64;40.10
829;BME280;396;52.558;13.188;2023-05-09T09:31:30;101570.59;;;16.68;42.06
829;BME280;396;52.558;13.188;2023-05-09T09:34:00;101562.28;;;16.81;40.94
829;BME280;396;52.558;13.188;2023-05-09T09:36:26;101551.03;;;16.83;41.44
829;BME280;396;52.558;13.188;2023-05-09T09:38:57;101557.94;;;16.80;42.06
829;BME280;396;52.558;13.188;2023-05-09T09:41:29;101544.28;;;16.98;40.67
829;BME280;396;52.558;13.188;2023-05-09T09:43:56;101534.13;;;17.07;41.12
829;BME280;396;52.558;13.188;2023-05-09T09:46:24;101538.31;;;17.13;42.04
829;BME280;396;52.558;13.188;2023-05-09T09:48:50;101526.41;;;17.18;39.89
829;BME280;396;52.558;13.188;2023-05-09T09:51:21;101525.13;;;17.32;38.10
829;BME280;396;52.558;13.188;2023-05-09T09:53:47;101528.66;;;17.42;39.39
829;BME280;396;52.558;13.188;2023-05-09T09:56:14;101530.09;;;17.48;40.06
829;BME280;396;52.558;13.188;2023-05-09T09:58:40;101513.97;;;17.55;40.19
829;BME280;396;52.558;13.188;2023-05-09T10:01:08;101511.84;;;17.60;40.89
829;BME280;396;52.558;13.188;2023-05-09T10:03:37;101510.69;;;17.70;41.53
829;BME280;396;52.558;13.188;2023-05-09T10:06:04;101503.28;;;17.79;40.84
829;BME280;396;52.558;13.188;2023-05-09T10:08:34;101517.78;;;17.88;41.49
829;BME280;396;52.558;13.188;2023-05-09T10:11:01;101512.78;;;17.90;38.90
829;BME280;396;52.558;13.188;2023-05-09T10:13:28;101497.28;;;17.95;37.49
829;BME280;396;52.558;13.188;2023-05-09T10:15:55;101508.72;;;17.97;39.46
829;BME280;396;52.558;13.188;2023-05-09T10:18:26;101490.66;;;17.96;38.71
829;BME280;396;52.558;13.188;2023-05-09T10:20:56;101496.13;;;18.04;38.35
829;BME280;396;52.558;13.188;2023-05-09T10:23:25;101487.47;;;18.23;37.94
829;BME280;396;52.558;13.188;2023-05-09T10:25:57;101481.63;;;18.33;39.24
829;BME280;396;52.558;13.188;2023-05-09T10:28:30;101474.88;;;18.52;38.29
829;BME280;396;52.558;13.188;2023-05-09T10:31:00;101475.97;;;18.59;37.75
829;BME280;396;52.558;13.188;2023-05-09T10:33:33;101473.66;;;18.70;38.32
829;BME280;396;52.558;13.188;2023-05-09T10:36:05;101472.78;;;18.78;37.33
829;BME280;396;52.558;13.188;2023-05-09T10:38:33;101477.72;;;18.85;38.38
829;BME280;396;52.558;13.188;2023-05-09T10:41:01;101477.66;;;18.94;39.02
829;BME280;396;52.558;13.188;2023-05-09T10:43:28;101470.63;;;19.05;36.09
829;BME280;396;52.558;13.188;2023-05-09T10:45:56;101478.31;;;19.11;37.89
829;BME280;396;52.558;13.188;2023-05-09T10:48:23;101478.03;;;19.25;37.87
829;BME280;396;52.558;13.188;2023-05-09T10:50:50;101470.50;;;19.34;36.42
829;BME280;396;52.558;13.188;2023-05-09T10:53:18;101458.16;;;19.40;38.34
829;BME280;396;52.558;13.188;2023-05-09T10:55:50;101459.13;;;19.57;37.65
829;BME280;396;52.558;13.188;2023-05-09T10:58:23;101459.97;;;19.70;36.89
829;BME280;396;52.558;13.188;2023-05-09T11:00:52;101449.22;;;19.77;35.53
829;BME280;396;52.558;13.188;2023-05-09T11:03:19;101460.22;;;19.77;36.68
829;BME280;396;52.558;13.188;2023-05-09T11:05:47;101451.19;;;19.88;37.60
829;BME280;396;52.558;13.188;2023-05-09T11:08:22;101448.66;;;20.20;36.96
829;BME280;396;52.558;13.188;2023-05-09T11:10:50;101443.16;;;20.32;36.35
829;BME280;396;52.558;13.188;2023-05-09T11:13:18;101432.50;;;20.71;36.59
829;BME280;396;52.558;13.188;2023-05-09T11:16:08;101428.91;;;21.39;32.95
829;BME280;396;52.558;13.188;2023-05-09T11:18:48;101426.78;;;21.64;33.26
829;BME280;396;52.558;13.188;2023-05-09T11:21:15;101422.97;;;21.84;31.86
829;BME280;396;52.558;13.188;2023-05-09T11:23:47;101417.13;;;22.21;31.84
829;BME280;396;52.558;13.188;2023-05-09T11:26:14;101416.06;;;22.80;32.14
829;BME280;396;52.558;13.188;2023-05-09T11:28:51;101406.09;;;23.37;33.26
829;BME280;396;52.558;13.188;2023-05-09T11:31:17;101400.13;;;23.81;29.87
829;BME280;396;52.558;13.188;2023-05-09T11:33:47;101409.59;;;24.07;29.64
829;BME280;396;52.558;13.188;2023-05-09T11:36:26;101414.59;;;24.51;30.99
829;BME280;396;52.558;13.188;2023-05-09T11:39:02;101405.19;;;24.59;28.32
829;BME280;396;52.558;13.188;2023-05-09T11:41:29;101402.34;;;24.52;29.02
829;BME280;396;52.558;13.188;2023-05-09T11:43:56;101383.28;;;24.80;28.97
829;BME280;396;52.558;13.188;2023-05-09T11:46:24;101386.69;;;25.04;29.26
829;BME280;396;52.558;13.188;2023-05-09T11:48:52;101380.75;;;25.02;27.75
829;BME280;396;52.558;13.188;2023-05-09T11:51:19;101379.56;;;25.03;28.69
829;BME280;396;52.558;13.188;2023-05-09T11:53:48;101376.47;;;25.08;29.75
829;BME280;396;52.558;13.188;2023-05-09T11:56:19;101367.06;;;25.64;29.00
829;BME280;396;52.558;13.188;2023-05-09T11:58:50;101362.88;;;25.88;27.80
829;BME280;396;52.558;13.188;2023-05-09T12:01:17;101367.09;;;26.26;26.93
829;BME280;396;52.558;13.188;2023-05-09T12:03:44;101356.53;;;26.64;27.89
829;BME280;396;52.558;13.188;2023-05-09T12:06:14;101348.22;;;26.71;27.59
829;BME280;396;52.558;13.188;2023-05-09T12:08:41;101351.06;;;26.92;26.85
829;BME280;396;52.558;13.188;2023-05-09T12:11:09;101337.19;;;27.17;26.45
829;BME280;396;52.558;13.188;2023-05-09T12:13:44;101335.97;;;27.08;25.46
829;BME280;396;52.558;13.188;2023-05-09T12:16:12;101345.94;;;27.16;25.43
829;BME280;396;52.558;13.188;2023-05-09T12:18:43;101341.97;;;27.10;25.73
829;BME280;396;52.558;13.188;2023-05-09T12:21:10;101331.22;;;27.48;26.15
829;BME280;396;52.558;13.188;2023-05-09T12:23:36;101323.66;;;27.52;26.95
829;BME280;396;52.558;13.188;2023-05-09T12:26:03;101327.25;;;27.56;25.33
829;BME280;396;52.558;13.188;2023-05-09T12:28:30;101310.13;;;27.64;25.54
829;BME280;396;52.558;13.188;2023-05-09T12:30:58;101319.72;;;27.35;25.42
829;BME280;396;52.558;13.188;2023-05-09T12:33:25;101314.50;;;26.98;26.21
829;BME280;396;52.558;13.188;2023-05-09T12:36:01;101318.03;;;26.73;25.59
829;BME280;396;52.558;13.188;2023-05-09T12:38:28;101310.91;;;26.90;26.57
829;BME280;396;52.558;13.188;2023-05-09T12:40:59;101307.00;;;27.30;25.70
829;BME280;396;52.558;13.188;2023-05-09T12:43:28;101314.06;;;27.96;25.67
829;BME280;396;52.558;13.188;2023-05-09T12:45:57;101307.72;;;27.66;24.88
829;BME280;396;52.558;13.188;2023-05-09T12:48:24;101314.13;;;27.49;26.29
829;BME280;396;52.558;13.188;2023-05-09T12:50:51;101303.00;;;27.67;24.89
829;BME280;396;52.558;13.188;2023-05-09T12:53:24;101306.94;;;27.70;26.20
829;BME280;396;52.558;13.188;2023-05-09T12:55:54;101288.63;;;27.94;25.32
829;BME280;396;52.558;13.188;2023-05-09T12:58:22;101290.91;;;28.20;25.69
829;BME280;396;52.558;13.188;2023-05-09T13:00:48;101297.47;;;28.62;25.19
829;BME280;396;52.558;13.188;2023-05-09T13:03:24;101289.09;;;28.65;24.46
829;BME280;396;52.558;13.188;2023-05-09T13:05:55;101292.56;;;28.07;24.92
829;BME280;396;52.558;13.188;2023-05-09T13:08:22;101271.06;;;28.00;25.00
829;BME280;396;52.558;13.188;2023-05-09T13:10:49;101259.94;;;27.93;24.81
829;BME280;396;52.558;13.188;2023-05-09T13:13:16;101256.72;;;28.02;25.61
829;BME280;396;52.558;13.188;2023-05-09T13:15:42;101265.78;;;28.27;25.14
829;BME280;396;52.558;13.188;2023-05-09T13:18:10;101264.44;;;28.60;24.63
829;BME280;396;52.558;13.188;2023-05-09T13:20:38;101252.63;;;28.90;24.45
829;BME280;396;52.558;13.188;2023-05-09T13:23:04;101248.22;;;29.41;24.80
829;BME280;396;52.558;13.188;2023-05-09T13:25:31;101243.13;;;29.33;23.96
829;BME280;396;52.558;13.188;2023-05-09T13:27:58;101239.34;;;28.60;23.57